createdAt,value
2023-02-04T00:00:17.349Z,6.35
2023-02-04T00:02:44.856Z,7.20
2023-02-04T00:05:12.203Z,7.01
2023-02-04T00:07:41.283Z,6.89
2023-02-04T00:10:09.252Z,6.37
2023-02-04T00:12:36.409Z,7.01
2023-02-04T00:15:03.609Z,6.50
2023-02-04T00:17:31.033Z,7.31
2023-02-04T00:19:58.191Z,6.56
2023-02-04T00:22:26.547Z,7.15
2023-02-04T00:24:53.981Z,7.24
2023-02-04T00:27:21.112Z,7.44
2023-02-04T00:29:48.249Z,6.98
2023-02-04T00:32:15.838Z,7.24
2023-02-04T00:34:44.557Z,6.85
2023-02-04T00:37:11.698Z,6.99
2023-02-04T00:39:39.126Z,7.43
2023-02-04T00:42:06.351Z,7.10
2023-02-04T00:44:33.957Z,6.88
2023-02-04T00:47:01.398Z,7.71
2023-02-04T00:49:30.110Z,7.89
2023-02-04T00:51:57.245Z,7.83
2023-02-04T00:54:26.427Z,7.78
2023-02-04T00:56:54.660Z,7.41
2023-02-04T00:59:22.605Z,8.07
2023-02-04T01:01:51.618Z,8.08
2023-02-04T01:04:18.803Z,7.00
2023-02-04T01:06:45.973Z,7.54
2023-02-04T01:09:13.406Z,7.46
2023-02-04T01:11:40.569Z,7.42
2023-02-04T01:14:07.773Z,7.24
2023-02-04T01:16:35.310Z,6.43
2023-02-04T01:19:02.480Z,6.00
2023-02-04T01:21:29.648Z,6.35
2023-02-04T01:23:57.083Z,6.44
2023-02-04T01:26:24.226Z,6.56
2023-02-04T01:28:51.367Z,7.15
2023-02-04T01:31:18.923Z,6.52
2023-02-04T01:33:46.124Z,6.83
2023-02-04T01:36:13.289Z,7.56
2023-02-04T01:38:40.715Z,6.93
2023-02-04T01:41:07.948Z,7.19
2023-02-04T01:43:35.218Z,7.37
2023-02-04T01:46:02.900Z,6.79
2023-02-04T01:48:30.096Z,7.91
2023-02-04T01:50:59.627Z,7.99
2023-02-04T01:53:27.036Z,7.88
2023-02-04T01:55:54.257Z,7.63
2023-02-04T01:58:21.391Z,7.88
2023-02-04T02:00:49.043Z,7.71
2023-02-04T02:03:16.574Z,7.86
2023-02-04T02:05:44.768Z,7.91
2023-02-04T02:08:12.325Z,7.66
2023-02-04T02:10:40.316Z,8.15
2023-02-04T02:13:08.510Z,7.84
2023-02-04T02:15:39.082Z,7.77
2023-02-04T02:18:06.260Z,7.99
2023-02-04T02:20:33.630Z,7.88
2023-02-04T02:23:04.349Z,8.18
2023-02-04T02:25:31.538Z,8.03
2023-02-04T02:27:59.060Z,7.48
2023-02-04T02:30:28.177Z,7.64
2023-02-04T02:32:55.371Z,8.12
2023-02-04T02:35:22.515Z,7.57
2023-02-04T02:37:52.753Z,7.55
2023-02-04T02:40:20.299Z,8.46
2023-02-04T02:42:48.680Z,8.47
2023-02-04T02:45:18.956Z,7.71
2023-02-04T02:47:46.086Z,7.11
2023-02-04T02:50:15.765Z,7.78
2023-02-04T02:52:44.406Z,8.19
2023-02-04T02:55:18.338Z,8.01
2023-02-04T02:57:46.653Z,7.89
2023-02-04T03:00:34.420Z,8.00
2023-02-04T03:03:14.902Z,7.74
2023-02-04T03:05:42.579Z,7.04
2023-02-04T03:08:10.827Z,7.11
2023-02-04T03:10:38.132Z,7.50
2023-02-04T03:13:06.166Z,8.03
2023-02-04T03:15:33.614Z,7.09
2023-02-04T03:18:00.900Z,7.39
2023-02-04T03:20:28.960Z,7.68
2023-02-04T03:22:56.721Z,7.76
2023-02-04T03:25:26.504Z,7.52
2023-02-04T03:27:54.475Z,6.98
2023-02-04T03:30:22.289Z,7.53
2023-02-04T03:32:49.619Z,7.08
2023-02-04T03:35:16.900Z,8.39
2023-02-04T03:37:44.433Z,7.39
2023-02-04T03:40:12.030Z,7.23
2023-02-04T03:42:39.175Z,7.30
2023-02-04T03:45:06.757Z,7.44
2023-02-04T03:47:33.948Z,7.69
2023-02-04T03:50:01.108Z,6.88
2023-02-04T03:52:28.549Z,6.85
2023-02-04T03:54:55.703Z,7.07
2023-02-04T03:57:22.867Z,7.21
2023-02-04T03:59:50.292Z,8.19
2023-02-04T04:02:17.420Z,7.24
2023-02-04T04:04:44.890Z,6.78
2023-02-04T04:07:12.736Z,8.25
2023-02-04T04:09:39.888Z,6.87
2023-02-04T04:12:07.317Z,7.51
2023-02-04T04:14:34.548Z,8.10
2023-02-04T04:17:01.677Z,7.13
2023-02-04T04:19:29.176Z,7.47
2023-02-04T04:21:56.305Z,7.68
2023-02-04T04:24:23.459Z,7.59
2023-02-04T04:26:50.896Z,8.05
2023-02-04T04:29:18.021Z,8.06
2023-02-04T04:31:45.411Z,7.82
2023-02-04T04:34:12.925Z,7.60
2023-02-04T04:36:40.072Z,7.37
2023-02-04T04:39:07.209Z,7.63
2023-02-04T04:41:34.634Z,7.28
2023-02-04T04:44:01.771Z,7.41
2023-02-04T04:46:29.675Z,7.54
2023-02-04T04:48:57.115Z,7.88
2023-02-04T04:51:24.251Z,7.38
2023-02-04T04:53:51.388Z,7.23
2023-02-04T04:56:19.254Z,7.58
2023-02-04T04:58:46.400Z,7.64
2023-02-04T05:01:13.604Z,7.31
2023-02-04T05:03:41.094Z,7.56
2023-02-04T05:06:09.394Z,7.25
2023-02-04T05:08:36.598Z,7.20
2023-02-04T05:11:04.064Z,7.44
2023-02-04T05:13:31.192Z,7.72
2023-02-04T05:15:58.469Z,7.35
2023-02-04T05:18:25.936Z,7.44
2023-02-04T05:20:53.065Z,7.71
2023-02-04T05:23:20.235Z,7.42
2023-02-04T05:25:47.694Z,6.72
2023-02-04T05:28:14.914Z,7.29
2023-02-04T05:30:42.156Z,7.12
2023-02-04T05:33:09.631Z,7.12
2023-02-04T05:35:36.770Z,6.71
2023-02-04T05:38:03.910Z,6.89
2023-02-04T05:40:31.708Z,7.10
2023-02-04T05:42:59.038Z,7.83
2023-02-04T05:45:26.196Z,7.85
2023-02-04T05:47:53.652Z,7.42
2023-02-04T05:50:20.794Z,6.59
2023-02-04T05:52:50.492Z,6.39
2023-02-04T05:55:18.135Z,7.18
2023-02-04T05:57:45.571Z,7.17
2023-02-04T06:00:13.023Z,6.53
2023-02-04T06:02:40.488Z,6.38
2023-02-04T06:05:07.713Z,5.68
2023-02-04T06:07:34.866Z,6.08
2023-02-04T06:10:02.282Z,5.81
2023-02-04T06:12:31.088Z,5.54
2023-02-04T06:14:58.527Z,5.41
2023-02-04T06:17:25.932Z,5.48
2023-02-04T06:19:53.061Z,5.44
2023-02-04T06:22:20.223Z,5.37
2023-02-04T06:24:47.696Z,5.58
2023-02-04T06:27:14.941Z,5.59
2023-02-04T06:29:42.094Z,5.13
2023-02-04T06:32:09.516Z,5.20
2023-02-04T06:34:36.687Z,5.53
2023-02-04T06:37:03.873Z,5.72
2023-02-04T06:39:31.303Z,5.41
2023-02-04T06:41:58.478Z,5.63
2023-02-04T06:44:25.629Z,5.50
2023-02-04T06:46:53.592Z,5.35
2023-02-04T06:49:20.859Z,5.53
2023-02-04T06:51:48.564Z,5.24
2023-02-04T06:54:15.982Z,5.81
2023-02-04T06:56:43.736Z,6.09
2023-02-04T06:59:11.027Z,5.54
2023-02-04T07:01:38.478Z,5.49
2023-02-04T07:04:05.791Z,5.34
2023-02-04T07:06:32.953Z,5.53
2023-02-04T07:09:00.392Z,5.62
2023-02-04T07:11:27.573Z,5.46
2023-02-04T07:13:54.740Z,5.17
2023-02-04T07:16:22.220Z,5.03
2023-02-04T07:18:49.346Z,5.55
2023-02-04T07:21:16.494Z,4.91
2023-02-04T07:23:43.921Z,4.68
2023-02-04T07:26:11.063Z,5.59
2023-02-04T07:28:38.290Z,5.31
2023-02-04T07:31:05.815Z,5.35
2023-02-04T07:33:32.992Z,4.61
2023-02-04T07:36:00.146Z,4.65
2023-02-04T07:38:27.580Z,4.24
2023-02-04T07:40:54.715Z,4.18
2023-02-04T07:43:22.154Z,4.75
2023-02-04T07:45:49.637Z,4.57
2023-02-04T07:48:16.852Z,4.00
2023-02-04T07:50:44.315Z,4.62
2023-02-04T07:53:12.881Z,4.48
2023-02-04T07:55:40.239Z,4.76
2023-02-04T07:58:07.404Z,5.15
2023-02-04T08:00:34.842Z,4.96
2023-02-04T08:03:02.314Z,5.33
2023-02-04T08:05:30.463Z,4.68
2023-02-04T08:07:58.605Z,5.05
2023-02-04T08:10:26.169Z,4.43
2023-02-04T08:12:53.295Z,3.92
2023-02-04T08:15:20.450Z,4.15
2023-02-04T08:17:47.984Z,3.88
2023-02-04T08:20:15.181Z,3.92
2023-02-04T08:22:42.292Z,4.41
2023-02-04T08:25:11.406Z,4.02
2023-02-04T08:27:38.834Z,4.56
2023-02-04T08:30:06.340Z,4.29
2023-02-04T08:32:35.006Z,4.56
2023-02-04T08:35:02.199Z,4.57
2023-02-04T08:37:29.415Z,4.28
2023-02-04T08:39:56.978Z,4.38
2023-02-04T08:42:24.236Z,4.18
2023-02-04T08:44:51.380Z,4.14
2023-02-04T08:47:18.811Z,4.34
2023-02-04T08:49:45.960Z,4.10
2023-02-04T08:52:13.156Z,4.26
2023-02-04T08:54:40.586Z,4.07
2023-02-04T08:57:07.752Z,3.94
2023-02-04T08:59:34.894Z,4.14
2023-02-04T09:02:03.115Z,3.69
2023-02-04T09:04:30.377Z,3.89
2023-02-04T09:06:57.625Z,4.35
2023-02-04T09:09:26.379Z,4.28
2023-02-04T09:11:53.596Z,3.98
2023-02-04T09:14:20.725Z,3.93
2023-02-04T09:16:49.167Z,4.51
2023-02-04T09:19:19.120Z,4.05
2023-02-04T09:21:46.283Z,4.48
2023-02-04T09:24:13.855Z,4.16
2023-02-04T09:26:41.089Z,4.55
2023-02-04T09:29:08.698Z,4.60
2023-02-04T09:31:39.370Z,4.74
2023-02-04T09:34:06.668Z,4.50
2023-02-04T09:36:37.935Z,4.54
2023-02-04T09:39:06.155Z,4.96
2023-02-04T09:41:33.644Z,4.52
2023-02-04T09:44:00.804Z,5.33
2023-02-04T09:46:31.047Z,4.93
2023-02-04T09:48:58.822Z,4.54
2023-02-04T09:51:27.395Z,5.11
2023-02-04T09:54:05.771Z,4.93
2023-02-04T09:56:32.907Z,4.82
2023-02-04T09:59:00.320Z,5.26
2023-02-04T10:01:28.015Z,5.65
2023-02-04T10:03:56.856Z,5.74
2023-02-04T10:06:24.132Z,6.27
2023-02-04T10:08:51.560Z,5.18
2023-02-04T10:11:19.961Z,5.10
2023-02-04T10:13:50.233Z,4.97
2023-02-04T10:16:36.137Z,5.40
2023-02-04T10:19:04.354Z,5.25
2023-02-04T10:21:35.829Z,4.59
2023-02-04T10:24:04.037Z,4.46
2023-02-04T10:26:31.828Z,4.56
2023-02-04T10:28:59.854Z,5.03
2023-02-04T10:31:37.935Z,4.32
2023-02-04T10:34:18.429Z,4.52
2023-02-04T10:36:47.579Z,4.27
2023-02-04T10:39:18.945Z,4.25
2023-02-04T10:41:49.599Z,3.96
2023-02-04T10:44:18.932Z,4.63
2023-02-04T10:46:46.048Z,4.69
2023-02-04T10:49:23.674Z,4.52
2023-02-04T10:51:52.685Z,5.02
2023-02-04T10:54:33.832Z,5.53
2023-02-04T10:57:11.754Z,5.43
2023-02-04T10:59:38.903Z,5.16
2023-02-04T11:02:18.013Z,5.05
2023-02-04T11:04:45.277Z,4.68
2023-02-04T11:07:12.703Z,4.43
2023-02-04T11:09:43.287Z,5.19
2023-02-04T11:12:19.882Z,4.79
2023-02-04T11:14:56.841Z,4.65
2023-02-04T11:17:31.392Z,4.84
2023-02-04T11:19:59.887Z,4.86
2023-02-04T11:22:37.366Z,5.10
2023-02-04T11:25:04.874Z,4.93
2023-02-04T11:27:39.400Z,5.23
2023-02-04T11:30:08.005Z,4.85
2023-02-04T11:32:37.832Z,5.35
2023-02-04T11:35:08.065Z,4.56
2023-02-04T11:37:37.310Z,4.81
2023-02-04T11:40:19.681Z,5.44
2023-02-04T11:42:47.153Z,6.07
2023-02-04T11:45:15.812Z,5.53
2023-02-04T11:47:43.240Z,5.74
2023-02-04T11:50:19.665Z,4.83
2023-02-04T11:52:46.884Z,5.06
2023-02-04T11:55:14.510Z,5.09
2023-02-04T11:57:42.667Z,5.06
2023-02-04T12:00:14.508Z,4.98
2023-02-04T12:02:46.077Z,5.46
2023-02-04T12:05:17.297Z,5.23
2023-02-04T12:07:45.128Z,4.84
2023-02-04T12:10:18.278Z,4.97
2023-02-04T12:12:57.721Z,5.11
2023-02-04T12:15:25.007Z,5.52
2023-02-04T12:18:09.010Z,5.07
2023-02-04T12:20:37.303Z,4.49
2023-02-04T12:23:04.918Z,4.77
2023-02-04T12:25:32.426Z,4.68
2023-02-04T12:27:59.767Z,5.05
2023-02-04T12:30:27.234Z,4.79
2023-02-04T12:32:54.373Z,4.46
2023-02-04T12:35:21.517Z,4.34
2023-02-04T12:37:48.951Z,4.60
2023-02-04T12:40:17.891Z,4.95
2023-02-04T12:42:45.932Z,4.43
2023-02-04T12:45:14.570Z,4.38
2023-02-04T12:47:43.704Z,4.41
2023-02-04T12:50:11.825Z,4.58
2023-02-04T12:52:39.502Z,5.04
2023-02-04T12:55:07.412Z,4.73
2023-02-04T12:57:34.713Z,4.93
2023-02-04T13:00:02.138Z,4.73
2023-02-04T13:02:29.441Z,4.69
2023-02-04T13:04:56.663Z,4.80
2023-02-04T13:07:24.183Z,4.41
2023-02-04T13:09:52.441Z,4.48
2023-02-04T13:12:19.583Z,4.83
2023-02-04T13:14:47.020Z,4.62
2023-02-04T13:17:14.187Z,4.27
2023-02-04T13:19:41.327Z,4.27
2023-02-04T13:22:08.782Z,4.45
2023-02-04T13:24:35.926Z,3.86
2023-02-04T13:27:03.068Z,4.19
2023-02-04T13:29:30.481Z,3.95
2023-02-04T13:31:57.714Z,4.19
2023-02-04T13:34:24.895Z,4.32
2023-02-04T13:36:52.312Z,4.67
2023-02-04T13:39:19.498Z,4.88
2023-02-04T13:41:47.110Z,3.94
2023-02-04T13:44:14.562Z,4.17
2023-02-04T13:46:41.754Z,4.05
2023-02-04T13:49:08.893Z,3.54
2023-02-04T13:51:36.329Z,4.24
2023-02-04T13:54:03.594Z,3.82
2023-02-04T13:56:32.898Z,4.25
2023-02-04T13:59:00.449Z,4.32
2023-02-04T14:01:28.379Z,4.30
2023-02-04T14:03:55.808Z,3.78
2023-02-04T14:06:23.590Z,3.87
2023-02-04T14:08:50.777Z,4.09
2023-02-04T14:11:18.396Z,3.67
2023-02-04T14:13:45.916Z,3.96
2023-02-04T14:16:13.138Z,3.56
2023-02-04T14:18:40.624Z,3.50
2023-02-04T14:21:07.785Z,3.54
2023-02-04T14:23:35.050Z,3.51
2023-02-04T14:26:02.586Z,3.29
2023-02-04T14:28:29.758Z,3.33
2023-02-04T14:30:56.928Z,3.38
2023-02-04T14:33:24.520Z,3.56
2023-02-04T14:35:51.884Z,3.31
2023-02-04T14:38:19.686Z,3.03
2023-02-04T14:40:47.433Z,3.29
2023-02-04T14:43:14.965Z,3.51
2023-02-04T14:45:42.211Z,3.15
2023-02-04T14:48:09.682Z,3.77
2023-02-04T14:50:37.084Z,3.48
2023-02-04T14:53:04.500Z,3.70
2023-02-04T14:55:32.194Z,3.27
2023-02-04T14:57:59.348Z,3.23
2023-02-04T15:00:26.987Z,3.48
2023-02-04T15:02:54.591Z,3.08
2023-02-04T15:05:21.724Z,3.55
2023-02-04T15:07:48.901Z,3.40
2023-02-04T15:10:16.449Z,3.63
2023-02-04T15:12:44.386Z,3.31
2023-02-04T15:15:11.612Z,3.32
2023-02-04T15:17:39.316Z,3.62
2023-02-04T15:20:08.648Z,3.22
2023-02-04T15:22:35.797Z,2.91
2023-02-04T15:25:03.362Z,2.64
2023-02-04T15:27:30.574Z,2.97
2023-02-04T15:29:57.915Z,3.22
2023-02-04T15:32:26.020Z,3.35
2023-02-04T15:34:53.378Z,3.07
2023-02-04T15:37:20.745Z,3.04
2023-02-04T15:39:48.633Z,2.63
2023-02-04T15:42:16.017Z,2.47
2023-02-04T15:44:43.391Z,2.49
2023-02-04T15:47:10.963Z,2.81
2023-02-04T15:49:38.148Z,2.51
2023-02-04T15:52:08.853Z,2.80
2023-02-04T15:54:38.478Z,1.76
2023-02-04T15:57:06.080Z,2.85
2023-02-04T15:59:33.279Z,2.06
2023-02-04T16:02:01.039Z,1.87
2023-02-04T16:04:28.865Z,1.99
2023-02-04T16:06:59.168Z,2.07
2023-02-04T16:09:26.782Z,2.49
2023-02-04T16:11:54.508Z,2.45
2023-02-04T16:14:21.651Z,2.56
2023-02-04T16:16:48.848Z,2.41
2023-02-04T16:19:16.273Z,2.62
2023-02-04T16:21:43.631Z,2.12
2023-02-04T16:24:10.857Z,2.35
2023-02-04T16:26:38.960Z,2.14
2023-02-04T16:29:06.128Z,2.75
2023-02-04T16:31:33.363Z,2.44
2023-02-04T16:34:03.944Z,2.33
2023-02-04T16:36:31.283Z,2.06
2023-02-04T16:38:59.720Z,1.93
2023-02-04T16:41:27.238Z,1.79
2023-02-04T16:43:57.401Z,2.07
2023-02-04T16:46:26.075Z,1.98
2023-02-04T16:48:53.523Z,2.22
2023-02-04T16:51:20.969Z,2.24
2023-02-04T16:53:48.150Z,2.65
2023-02-04T16:56:15.577Z,2.43
2023-02-04T16:58:43.149Z,2.30
2023-02-04T17:01:10.967Z,2.59
2023-02-04T17:03:38.645Z,2.62
2023-02-04T17:06:06.185Z,2.30
2023-02-04T17:08:33.395Z,1.87
2023-02-04T17:11:21.708Z,2.17
2023-02-04T17:13:49.292Z,2.27
2023-02-04T17:16:18.603Z,1.55
2023-02-04T17:18:45.823Z,2.17
2023-02-04T17:21:13.669Z,1.59
2023-02-04T17:23:41.499Z,1.63
2023-02-04T17:26:09.950Z,2.11
2023-02-04T17:28:37.615Z,1.89
2023-02-04T17:31:05.883Z,2.29
2023-02-04T17:33:33.558Z,3.06
2023-02-04T17:36:02.184Z,2.86
2023-02-04T17:38:30.285Z,3.12
2023-02-04T17:40:58.159Z,2.72
2023-02-04T17:43:25.972Z,2.80
2023-02-04T17:45:53.946Z,2.79
2023-02-04T17:48:21.124Z,2.92
2023-02-04T17:50:48.426Z,2.46
2023-02-04T17:53:16.892Z,2.62
2023-02-04T17:55:44.500Z,2.58
2023-02-04T17:58:15.875Z,2.08
2023-02-04T18:00:44.596Z,2.30
2023-02-04T18:03:14.261Z,1.55
2023-02-04T18:05:46.098Z,1.74
2023-02-04T18:08:27.747Z,2.22
2023-02-04T18:10:55.513Z,1.90
2023-02-04T18:13:24.100Z,2.69
2023-02-04T18:15:57.996Z,3.25
2023-02-04T18:18:27.521Z,2.28
2023-02-04T18:21:13.651Z,2.07
2023-02-04T18:23:42.057Z,2.08
2023-02-04T18:26:16.682Z,2.31
2023-02-04T18:28:49.216Z,1.90
2023-02-04T18:31:22.514Z,2.54
2023-02-04T18:33:50.435Z,2.14
2023-02-04T18:36:19.296Z,2.21
2023-02-04T18:38:47.125Z,2.10
2023-02-04T18:41:17.979Z,2.38
2023-02-04T18:43:50.360Z,2.21
2023-02-04T18:46:24.830Z,2.98
2023-02-04T18:49:02.658Z,3.51
2023-02-04T18:51:34.753Z,3.46
2023-02-04T18:54:16.220Z,3.52
2023-02-04T18:56:46.184Z,3.78
2023-02-04T18:59:15.643Z,3.26
2023-02-04T19:01:43.755Z,2.71
2023-02-04T19:04:20.595Z,2.96
2023-02-04T19:06:52.332Z,2.84
2023-02-04T19:09:22.682Z,3.38
2023-02-04T19:11:55.428Z,3.12
2023-02-04T19:14:27.905Z,2.93
2023-02-04T19:16:58.649Z,3.36
2023-02-04T19:19:33.058Z,3.32
2023-02-04T19:22:00.887Z,2.87
2023-02-04T19:24:29.567Z,2.33
2023-02-04T19:27:00.826Z,2.95
2023-02-04T19:29:33.719Z,2.54
2023-02-04T19:32:08.517Z,2.60
2023-02-04T19:34:39.007Z,2.12
2023-02-04T19:37:17.843Z,1.95
2023-02-04T19:39:45.235Z,2.37
2023-02-04T19:42:43.537Z,2.72
2023-02-04T19:45:17.029Z,2.82
2023-02-04T19:47:44.895Z,3.18
2023-02-04T19:50:23.308Z,3.36
2023-02-04T19:52:54.600Z,2.84
2023-02-04T19:55:29.919Z,2.56
2023-02-04T19:57:59.706Z,2.58
2023-02-04T20:00:36.616Z,2.86
2023-02-04T20:03:19.426Z,2.12
2023-02-04T20:05:48.538Z,1.92
2023-02-04T20:08:34.528Z,1.94
2023-02-04T20:11:06.869Z,2.01
2023-02-04T20:13:34.459Z,2.39
2023-02-04T20:16:02.656Z,2.44
2023-02-04T20:18:29.894Z,2.22
2023-02-04T20:20:57.632Z,2.19
2023-02-04T20:23:31.375Z,1.46
2023-02-04T20:26:00.336Z,2.40
2023-02-04T20:28:40.414Z,1.74
2023-02-04T20:31:21.336Z,1.45
2023-02-04T20:33:49.561Z,1.99
2023-02-04T20:36:26.220Z,1.24
2023-02-04T20:38:56.652Z,1.62
2023-02-04T20:41:26.352Z,1.08
2023-02-04T20:43:53.942Z,2.68
2023-02-04T20:46:23.135Z,1.76
2023-02-04T20:48:50.932Z,2.01
2023-02-04T20:51:24.042Z,2.28
2023-02-04T20:53:57.840Z,2.52
2023-02-04T20:56:30.895Z,2.49
2023-02-04T20:59:18.472Z,1.87
2023-02-04T21:01:50.173Z,2.04
2023-02-04T21:04:23.455Z,1.96
2023-02-04T21:06:51.712Z,2.00
2023-02-04T21:09:23.387Z,1.28
2023-02-04T21:11:52.118Z,0.56
2023-02-04T21:14:23.599Z,1.00
2023-02-04T21:16:51.221Z,1.01
2023-02-04T21:19:18.840Z,1.73
2023-02-04T21:21:46.314Z,1.38
2023-02-04T21:24:13.539Z,1.36
2023-02-04T21:26:41.948Z,1.14
2023-02-04T21:29:10.789Z,1.95
2023-02-04T21:31:38.260Z,1.48
2023-02-04T21:34:06.631Z,1.32
2023-02-04T21:36:34.357Z,1.61
2023-02-04T21:39:01.519Z,1.43
2023-02-04T21:41:28.828Z,1.20
2023-02-04T21:43:56.936Z,1.10
2023-02-04T21:46:24.781Z,1.21
2023-02-04T21:48:52.267Z,1.09
2023-02-04T21:51:19.902Z,1.53
2023-02-04T21:53:47.143Z,1.95
2023-02-04T21:56:14.576Z,1.82
2023-02-04T21:58:42.085Z,1.11
2023-02-04T22:01:10.502Z,0.95
2023-02-04T22:03:38.065Z,1.68
2023-02-04T22:06:05.343Z,2.05
2023-02-04T22:08:32.554Z,2.46
2023-02-04T22:11:00.566Z,2.12
2023-02-04T22:13:46.163Z,2.33
2023-02-04T22:16:15.699Z,2.14
2023-02-04T22:18:42.890Z,1.13
2023-02-04T22:21:10.104Z,1.19
2023-02-04T22:23:37.523Z,1.97
2023-02-04T22:26:04.669Z,1.66
2023-02-04T22:28:31.804Z,1.44
2023-02-04T22:30:59.331Z,1.90
2023-02-04T22:33:26.586Z,1.18
2023-02-04T22:35:54.023Z,2.67
2023-02-04T22:38:21.540Z,2.28
2023-02-04T22:40:48.977Z,2.15
2023-02-04T22:43:16.157Z,2.10
2023-02-04T22:45:43.694Z,2.24
2023-02-04T22:48:10.883Z,1.49
2023-02-04T22:50:41.736Z,1.47
2023-02-04T22:53:09.308Z,1.49
2023-02-04T22:55:36.566Z,0.80
2023-02-04T22:58:03.709Z,1.18
2023-02-04T23:00:31.733Z,1.49
2023-02-04T23:02:59.025Z,1.88
2023-02-04T23:05:26.154Z,0.92
2023-02-04T23:07:53.593Z,0.55
2023-02-04T23:10:20.851Z,1.77
2023-02-04T23:12:48.009Z,1.19
2023-02-04T23:15:15.565Z,1.51
2023-02-04T23:17:42.717Z,1.62
2023-02-04T23:20:10.226Z,0.72
2023-02-04T23:22:37.659Z,0.73
2023-02-04T23:25:06.490Z,1.22
2023-02-04T23:27:33.979Z,1.27
2023-02-04T23:30:01.528Z,1.07
2023-02-04T23:32:29.740Z,1.22
2023-02-04T23:34:56.897Z,1.63
2023-02-04T23:37:24.344Z,1.25
2023-02-04T23:39:51.494Z,1.62
2023-02-04T23:42:18.664Z,1.16
2023-02-04T23:44:46.103Z,1.13
2023-02-04T23:47:13.241Z,1.13
2023-02-04T23:49:40.390Z,0.90
2023-02-04T23:52:07.950Z,1.60
2023-02-04T23:54:35.243Z,1.59
2023-02-04T23:57:02.403Z,1.58
2023-02-04T23:59:29.812Z,1.33
